Time;durP1;ratioP1;P1;durP2;ratioP2;P2;SDS_P1;SDS_P2;PMS_P1;PMS_P2;Temp;Humidity;BMP_temperature;BMP_pressure;BME280_temperature;BME280_humidity;BME280_pressure;Samples;Min_cycle;Max_cycle;Signal;HPM_P1;HPM_P2
2022/06/08 00:00:13;;;;;;;1.92;1.67;;;17.90;56.50;;;;;;601505;239;26665;-67
2022/06/08 00:02:40;;;;;;;1.70;1.60;;;17.90;56.30;;;;;;601361;238;26654;-68
2022/06/08 00:05:08;;;;;;;2.08;1.87;;;17.90;57.00;;;;;;602695;236;26633;-68
2022/06/08 00:07:35;;;;;;;2.70;1.70;;;17.90;56.90;;;;;;603598;235;26637;-67
2022/06/08 00:10:02;;;;;;;1.75;1.65;;;17.90;56.80;;;;;;606892;235;26974;-68
2022/06/08 00:12:30;;;;;;;2.17;2.03;;;17.90;57.00;;;;;;606625;234;26872;-67
2022/06/08 00:14:57;;;;;;;2.45;1.90;;;17.80;56.90;;;;;;604477;234;26677;-67
2022/06/08 00:17:24;;;;;;;5.60;2.20;;;17.70;56.90;;;;;;605648;236;27281;-68
2022/06/08 00:19:51;;;;;;;1.98;1.52;;;17.80;57.20;;;;;;601482;238;26647;-68
2022/06/08 00:22:19;;;;;;;2.42;1.80;;;17.80;56.80;;;;;;603436;236;26989;-67
2022/06/08 00:24:46;;;;;;;2.75;1.58;;;17.80;56.70;;;;;;604308;234;26615;-68
2022/06/08 00:27:13;;;;;;;1.70;1.50;;;17.90;56.60;;;;;;605384;236;26655;-68
2022/06/08 00:29:41;;;;;;;1.87;1.70;;;17.90;56.20;;;;;;609827;236;26586;-68
2022/06/08 00:32:09;;;;;;;1.70;1.60;;;17.90;56.40;;;;;;603212;234;26589;-68
2022/06/08 00:34:37;;;;;;;1.50;1.40;;;17.80;55.90;;;;;;610192;234;26643;-67
2022/06/08 00:37:05;;;;;;;6.20;1.50;;;17.80;55.80;;;;;;609734;234;26594;-68
2022/06/08 00:39:32;;;;;;;1.90;1.70;;;17.80;55.80;;;;;;608425;234;26924;-68
2022/06/08 00:42:00;;;;;;;2.10;1.50;;;17.80;55.80;;;;;;605065;237;26645;-68
2022/06/08 00:44:30;;;;;;;1.80;1.70;;;17.80;55.90;;;;;;604937;234;26649;-67
2022/06/08 00:46:59;;;;;;;1.58;1.48;;;17.80;56.00;;;;;;608681;235;26577;-68
2022/06/08 00:49:26;;;;;;;2.33;1.77;;;17.70;55.80;;;;;;603340;236;26632;-68
2022/06/08 00:51:53;;;;;;;2.85;1.73;;;17.70;55.80;;;;;;602742;236;26820;-68
2022/06/08 00:54:20;;;;;;;2.35;1.70;;;17.70;55.80;;;;;;601920;237;26612;-68
2022/06/08 00:56:47;;;;;;;1.70;1.60;;;17.60;56.00;;;;;;603462;238;26815;-67
2022/06/08 00:59:15;;;;;;;1.20;1.20;;;17.50;56.20;;;;;;606581;236;26589;-67
2022/06/08 01:01:42;;;;;;;1.60;1.50;;;17.40;56.30;;;;;;606893;236;26867;-67
2022/06/08 01:04:10;;;;;;;2.17;1.50;;;17.40;56.40;;;;;;604407;234;26613;-67
2022/06/08 01:06:37;;;;;;;2.03;1.83;;;17.30;57.10;;;;;;607569;235;26865;-67
2022/06/08 01:09:04;;;;;;;2.15;1.75;;;17.30;56.80;;;;;;607296;235;26584;-67
2022/06/08 01:11:35;;;;;;;1.73;1.62;;;17.30;56.90;;;;;;604878;235;26802;-67
2022/06/08 01:14:02;;;;;;;1.70;1.60;;;17.30;57.50;;;;;;604028;235;26620;-67
2022/06/08 01:16:29;;;;;;;2.47;1.75;;;17.20;57.60;;;;;;601460;238;26636;-67
2022/06/08 01:18:57;;;;;;;3.15;2.05;;;17.10;57.50;;;;;;604470;235;26869;-67
2022/06/08 01:21:47;;;;;;;2.10;1.60;;;17.10;57.40;;;;;;609719;235;26575;-67
2022/06/08 01:24:15;;;;;;;1.65;1.55;;;17.00;57.90;;;;;;610601;235;26652;-67
2022/06/08 01:26:44;;;;;;;2.12;1.67;;;16.90;57.80;;;;;;607958;235;26608;-67
2022/06/08 01:29:36;;;;;;;1.98;1.85;;;17.00;58.50;;;;;;605240;236;26656;-67
2022/06/08 01:32:28;;;;;;;1.65;1.55;;;16.90;58.30;;;;;;604010;235;26661;-68
2022/06/08 01:35:09;;;;;;;1.85;1.75;;;16.70;58.60;;;;;;603430;236;26614;-68
2022/06/08 01:37:51;;;;;;;1.75;1.65;;;16.70;58.60;;;;;;604791;235;26937;-67
2022/06/08 01:40:25;;;;;;;1.98;1.75;;;16.70;58.50;;;;;;606615;235;26662;-67
2022/06/08 01:42:57;;;;;;;1.77;1.60;;;16.60;58.80;;;;;;605076;235;26705;-67
2022/06/08 01:45:29;;;;;;;1.50;1.40;;;16.50;59.30;;;;;;602580;235;26687;-67
2022/06/08 01:48:11;;;;;;;1.75;1.65;;;16.50;59.50;;;;;;604083;234;26643;-67
2022/06/08 01:50:54;;;;;;;1.60;1.50;;;16.30;60.00;;;;;;611232;234;26626;-67
2022/06/08 01:53:37;;;;;;;1.87;1.60;;;16.30;60.00;;;;;;603993;236;26649;-67
2022/06/08 01:56:13;;;;;;;2.47;1.70;;;16.30;60.50;;;;;;603729;237;26862;-67
2022/06/08 01:58:43;;;;;;;1.60;1.50;;;16.20;60.80;;;;;;610721;235;26873;-67
2022/06/08 02:01:29;;;;;;;1.83;1.73;;;16.20;61.60;;;;;;604171;238;26578;-67
2022/06/08 02:03:57;;;;;;;1.83;1.60;;;16.10;61.50;;;;;;602611;238;26598;-67
2022/06/08 02:06:24;;;;;;;1.85;1.73;;;16.20;61.90;;;;;;603699;238;26589;-67
2022/06/08 02:08:56;;;;;;;1.98;1.87;;;16.20;62.20;;;;;;607023;235;26859;-67
2022/06/08 02:11:25;;;;;;;2.33;1.77;;;16.10;62.50;;;;;;609004;236;26632;-68
2022/06/08 02:13:52;;;;;;;1.83;1.73;;;16.10;62.60;;;;;;603303;236;26812;-68
2022/06/08 02:16:22;;;;;;;1.80;1.70;;;16.00;63.60;;;;;;602000;236;26613;-68
2022/06/08 02:18:51;;;;;;;1.70;1.60;;;16.10;63.50;;;;;;601651;237;26599;-68
2022/06/08 02:21:19;;;;;;;1.87;1.77;;;16.10;63.60;;;;;;606930;235;26666;-67
2022/06/08 02:23:50;;;;;;;2.05;1.80;;;16.10;64.70;;;;;;603838;236;26606;-67
2022/06/08 02:26:18;;;;;;;2.40;1.95;;;16.10;64.60;;;;;;602815;236;26645;-68
2022/06/08 02:28:48;;;;;;;3.08;2.10;;;16.00;64.50;;;;;;607453;236;26850;-68
2022/06/08 02:31:19;;;;;;;2.55;2.20;;;16.00;64.40;;;;;;608090;236;26659;-68
2022/06/08 02:36:21;;;;;;;2.05;1.95;;;16.00;64.60;;;;;;601208;236;26685;-68
2022/06/08 02:38:50;;;;;;;2.20;2.00;;;16.10;64.40;;;;;;601444;239;26856;-68
2022/06/08 02:41:17;;;;;;;2.03;1.92;;;16.20;64.30;;;;;;603107;236;26631;-66
2022/06/08 02:43:44;;;;;;;1.87;1.70;;;16.30;64.50;;;;;;609753;231;26827;-67
2022/06/08 02:46:18;;;;;;;1.92;1.83;;;16.30;63.60;;;;;;607222;236;26616;-67
2022/06/08 02:48:45;;;;;;;2.17;1.67;;;16.50;63.50;;;;;;604762;237;26562;-67
2022/06/08 02:51:12;;;;;;;2.10;2.00;;;16.60;63.30;;;;;;604925;237;26563;-66
2022/06/08 02:53:41;;;;;;;2.15;2.00;;;16.70;63.20;;;;;;606845;233;26798;-67
2022/06/08 02:56:13;;;;;;;2.00;1.90;;;16.80;62.70;;;;;;607025;235;26625;-66
2022/06/08 02:58:43;;;;;;;2.08;1.95;;;16.80;62.70;;;;;;606483;235;26623;-66
2022/06/08 03:01:12;;;;;;;3.08;2.17;;;16.90;63.00;;;;;;602369;235;26652;-66
2022/06/08 03:03:39;;;;;;;3.47;2.20;;;16.90;62.70;;;;;;607090;236;26805;-66
2022/06/08 03:06:06;;;;;;;2.05;1.95;;;16.90;62.70;;;;;;610092;230;26596;-66
2022/06/08 03:08:34;;;;;;;2.15;2.05;;;17.10;61.80;;;;;;604773;236;26899;-66
2022/06/08 03:11:01;;;;;;;2.10;1.87;;;17.10;61.70;;;;;;604963;232;26654;-67
2022/06/08 03:13:29;;;;;;;3.00;1.95;;;17.00;61.50;;;;;;603159;236;26585;-67
2022/06/08 03:15:57;;;;;;;3.37;2.17;;;16.90;61.80;;;;;;604620;236;26595;-67
2022/06/08 03:18:25;;;;;;;2.55;2.10;;;16.80;61.50;;;;;;605916;235;26595;-68
2022/06/08 03:20:53;;;;;;;1.98;1.87;;;16.80;62.30;;;;;;602343;235;26594;-68
2022/06/08 03:23:20;;;;;;;2.65;2.45;;;16.80;61.70;;;;;;601896;237;26630;-68
2022/06/08 03:25:48;;;;;;;2.30;2.10;;;16.80;61.90;;;;;;601964;236;26582;-68
2022/06/08 03:28:15;;;;;;;2.22;2.05;;;16.80;62.10;;;;;;601832;237;26830;-67
2022/06/08 03:30:42;;;;;;;2.65;2.17;;;16.80;61.70;;;;;;602547;237;26807;-67
2022/06/08 03:33:09;;;;;;;2.00;1.80;;;16.90;62.30;;;;;;607223;236;26879;-67
2022/06/08 03:35:37;;;;;;;1.90;1.80;;;17.00;61.40;;;;;;606992;233;26671;-67
2022/06/08 03:38:04;;;;;;;1.77;1.67;;;17.10;61.40;;;;;;602355;238;26856;-67
2022/06/08 03:40:31;;;;;;;1.73;1.62;;;17.20;61.20;;;;;;602176;237;26864;-67
2022/06/08 03:42:58;;;;;;;1.85;1.75;;;17.30;60.30;;;;;;604512;237;26600;-67
2022/06/08 03:45:25;;;;;;;2.37;1.80;;;17.30;60.20;;;;;;604266;234;26844;-64
2022/06/08 03:47:53;;;;;;;3.55;1.85;;;17.30;59.90;;;;;;604419;237;26561;-64
2022/06/08 03:50:22;;;;;;;1.80;1.70;;;17.40;60.20;;;;;;604815;236;26614;-65
2022/06/08 03:52:52;;;;;;;2.37;1.75;;;17.40;60.20;;;;;;601663;236;26652;-64
2022/06/08 03:55:19;;;;;;;1.77;1.60;;;17.50;60.10;;;;;;602806;235;26663;-64
2022/06/08 03:57:46;;;;;;;1.60;1.50;;;17.60;60.20;;;;;;610185;236;26569;-63
2022/06/08 04:00:13;;;;;;;2.28;1.70;;;17.70;59.80;;;;;;605158;235;26880;-63
2022/06/08 04:02:41;;;;;;;1.70;1.60;;;17.80;59.70;;;;;;602780;236;26616;-64
2022/06/08 04:05:09;;;;;;;2.92;1.73;;;18.00;59.00;;;;;;602990;236;26637;-63
2022/06/08 04:07:37;;;;;;;2.20;1.60;;;18.10;58.80;;;;;;609813;235;26820;-63
2022/06/08 04:10:06;;;;;;;1.83;1.70;;;18.20;58.70;;;;;;605440;235;26601;-64
2022/06/08 04:12:33;;;;;;;1.85;1.70;;;18.20;58.70;;;;;;602326;238;26652;-64
2022/06/08 04:15:00;;;;;;;4.78;1.90;;;18.30;58.70;;;;;;602223;238;26679;-64
2022/06/08 04:17:29;;;;;;;3.47;1.60;;;18.40;58.40;;;;;;608426;235;26640;-65
2022/06/08 04:19:56;;;;;;;3.33;1.92;;;18.30;58.50;;;;;;605208;235;26587;-65
2022/06/08 04:22:31;;;;;;;1.98;1.67;;;18.20;58.70;;;;;;604314;236;26651;-65
2022/06/08 04:24:52;;;;;;;1.87;1.65;;;18.20;58.10;;;;;;604378;238;26601;-65
2022/06/08 04:27:20;;;;;;;1.50;1.40;;;18.10;58.10;;;;;;605610;235;26563;-65
2022/06/08 04:29:48;;;;;;;2.60;1.80;;;18.10;57.90;;;;;;604844;238;26590;-66
2022/06/08 04:32:15;;;;;;;1.65;1.55;;;18.10;58.50;;;;;;602474;236;26855;-65
2022/06/08 04:34:42;;;;;;;3.05;1.60;;;18.00;58.50;;;;;;603961;236;26814;-65
2022/06/08 04:37:09;;;;;;;1.87;1.77;;;17.90;58.00;;;;;;606330;236;26581;-65
2022/06/08 04:39:36;;;;;;;1.70;1.60;;;17.90;58.30;;;;;;607998;236;26901;-65
2022/06/08 04:42:04;;;;;;;2.17;1.67;;;17.90;58.20;;;;;;609797;235;26794;-65
2022/06/08 04:44:33;;;;;;;2.47;1.87;;;18.10;58.20;;;;;;609656;235;26909;-65
2022/06/08 04:46:59;;;;;;;1.87;1.77;;;18.20;58.30;;;;;;603246;235;27256;-64
2022/06/08 04:49:27;;;;;;;1.33;1.23;;;18.70;57.50;;;;;;604271;236;26631;-64
2022/06/08 04:51:55;;;;;;;2.03;1.70;;;18.90;57.50;;;;;;606200;235;26624;-65
2022/06/08 04:54:23;;;;;;;1.80;1.70;;;18.90;57.00;;;;;;601488;237;26637;-64
2022/06/08 04:56:51;;;;;;;5.07;1.80;;;18.90;57.20;;;;;;602811;237;26630;-63
2022/06/08 04:59:18;;;;;;;1.92;1.73;;;18.90;57.20;;;;;;604438;238;26587;-64
2022/06/08 05:01:46;;;;;;;1.60;1.50;;;19.00;57.20;;;;;;604535;237;26878;-63
2022/06/08 05:04:13;;;;;;;1.60;1.50;;;19.10;57.30;;;;;;608158;235;26587;-64
2022/06/08 05:06:40;;;;;;;2.53;1.40;;;19.20;57.20;;;;;;604682;235;26547;-63
2022/06/08 05:09:08;;;;;;;1.60;1.50;;;19.50;56.80;;;;;;609346;235;26609;-63
2022/06/08 05:11:36;;;;;;;3.40;1.52;;;19.80;56.60;;;;;;602286;232;26630;-63
2022/06/08 05:14:04;;;;;;;1.60;1.50;;;19.80;56.50;;;;;;604664;234;26583;-64
2022/06/08 05:16:32;;;;;;;1.70;1.25;;;19.70;56.80;;;;;;606847;235;26596;-62
2022/06/08 05:18:59;;;;;;;1.35;1.33;;;19.70;56.80;;;;;;604968;234;26648;-64
2022/06/08 05:21:26;;;;;;;1.83;1.73;;;19.50;57.00;;;;;;608256;234;26584;-64
2022/06/08 05:23:54;;;;;;;1.62;1.40;;;19.30;57.30;;;;;;604130;234;26832;-64
2022/06/08 05:26:21;;;;;;;1.65;1.50;;;19.20;57.70;;;;;;608447;234;26610;-64
2022/06/08 05:28:48;;;;;;;1.55;1.45;;;19.10;57.70;;;;;;605365;235;26822;-64
2022/06/08 05:31:15;;;;;;;1.80;1.70;;;19.10;58.10;;;;;;608472;235;26573;-64
2022/06/08 05:33:43;;;;;;;2.83;1.50;;;18.90;58.20;;;;;;606996;235;26877;-64
2022/06/08 05:36:10;;;;;;;1.50;1.40;;;18.90;58.50;;;;;;606367;235;26653;-64
2022/06/08 05:38:38;;;;;;;1.40;1.30;;;19.10;58.40;;;;;;602207;236;26622;-64
2022/06/08 05:41:06;;;;;;;2.75;1.60;;;19.20;58.50;;;;;;604361;235;26623;-64
2022/06/08 05:43:34;;;;;;;1.70;1.60;;;19.20;58.00;;;;;;608565;235;26701;-64
2022/06/08 05:46:01;;;;;;;4.80;1.60;;;19.40;57.70;;;;;;603066;236;26849;-63
2022/06/08 05:48:28;;;;;;;1.70;1.60;;;19.30;57.70;;;;;;605806;235;26572;-63
2022/06/08 05:50:55;;;;;;;1.67;1.40;;;19.20;57.90;;;;;;603642;235;27231;-65
2022/06/08 05:53:23;;;;;;;1.70;1.60;;;19.20;58.40;;;;;;602151;236;26639;-63
2022/06/08 05:55:51;;;;;;;2.10;1.75;;;19.20;58.00;;;;;;604342;235;26682;-64
2022/06/08 05:58:18;;;;;;;1.52;1.42;;;19.80;57.60;;;;;;606344;235;26630;-64
2022/06/08 06:00:46;;;;;;;1.62;1.52;;;20.00;57.20;;;;;;607461;235;26642;-64
2022/06/08 06:03:14;;;;;;;1.60;1.50;;;20.20;57.40;;;;;;605699;235;26655;-64
2022/06/08 06:05:42;;;;;;;1.60;1.50;;;20.50;57.00;;;;;;606146;235;26647;-64
2022/06/08 06:08:09;;;;;;;1.50;1.40;;;20.40;56.90;;;;;;607950;234;26623;-64
2022/06/08 06:10:37;;;;;;;2.83;1.48;;;20.50;56.50;;;;;;608324;235;26584;-64
2022/06/08 06:13:03;;;;;;;2.72;1.45;;;20.50;56.20;;;;;;604098;236;26829;-64
2022/06/08 06:15:31;;;;;;;1.42;1.25;;;20.40;56.20;;;;;;605083;235;26672;-65
2022/06/08 06:17:58;;;;;;;1.92;1.60;;;20.30;56.40;;;;;;610276;235;26859;-65
2022/06/08 06:20:25;;;;;;;2.12;1.60;;;20.40;56.40;;;;;;605434;234;26579;-65
2022/06/08 06:22:52;;;;;;;1.58;1.48;;;20.40;56.40;;;;;;606791;235;26630;-65
2022/06/08 06:25:19;;;;;;;1.90;1.70;;;20.40;56.20;;;;;;602695;236;26870;-63
2022/06/08 06:27:46;;;;;;;4.72;1.30;;;20.40;56.50;;;;;;603397;234;26922;-64
2022/06/08 06:30:14;;;;;;;1.12;1.12;;;20.50;56.50;;;;;;604368;234;26634;-64
2022/06/08 06:32:41;;;;;;;1.58;1.48;;;20.60;56.10;;;;;;605154;235;26873;-69
2022/06/08 06:35:09;;;;;;;3.50;1.58;;;20.90;55.90;;;;;;606430;234;26644;-69
2022/06/08 06:37:37;;;;;;;1.98;1.58;;;21.10;55.60;;;;;;607146;234;27033;-69
2022/06/08 06:40:07;;;;;;;6.35;1.85;;;21.30;55.10;;;;;;603972;235;26613;-65
2022/06/08 06:42:33;;;;;;;8.00;1.77;;;21.60;55.00;;;;;;605055;236;26570;-64
2022/06/08 06:45:00;;;;;;;6.50;1.12;;;21.70;54.80;;;;;;608350;234;26604;-65
2022/06/08 06:47:27;;;;;;;3.03;1.40;;;21.90;54.90;;;;;;603957;235;26848;-64
2022/06/08 06:49:56;;;;;;;1.27;1.17;;;22.00;54.90;;;;;;604245;235;26584;-64
2022/06/08 06:52:22;;;;;;;1.48;1.33;;;21.80;55.00;;;;;;606138;236;26582;-64
2022/06/08 06:54:49;;;;;;;1.80;1.40;;;21.70;55.30;;;;;;607264;235;26874;-65
2022/06/08 06:57:17;;;;;;;1.60;1.50;;;21.60;55.20;;;;;;604232;235;26589;-64
2022/06/08 06:59:45;;;;;;;1.90;1.50;;;21.70;55.50;;;;;;604344;235;26583;-69
2022/06/08 07:02:14;;;;;;;3.72;1.58;;;21.90;55.20;;;;;;604531;235;26598;-69
2022/06/08 07:04:41;;;;;;;1.73;1.60;;;21.90;55.30;;;;;;602901;235;26614;-64
2022/06/08 07:07:08;;;;;;;1.80;1.48;;;22.00;55.30;;;;;;607882;235;26657;-63
2022/06/08 07:09:35;;;;;;;1.40;1.30;;;22.30;55.20;;;;;;604708;236;26590;-64
2022/06/08 07:12:03;;;;;;;3.12;1.15;;;22.60;54.70;;;;;;606049;235;26872;-64
2022/06/08 07:14:31;;;;;;;3.17;1.42;;;22.60;54.40;;;;;;603082;236;26634;-64
2022/06/08 07:16:58;;;;;;;1.23;1.12;;;23.10;54.20;;;;;;604183;235;27096;-63
2022/06/08 07:19:25;;;;;;;2.42;1.35;;;23.30;53.20;;;;;;606742;236;26537;-63
2022/06/08 07:21:53;;;;;;;1.25;1.10;;;23.50;53.20;;;;;;606426;235;26816;-63
2022/06/08 07:24:21;;;;;;;1.20;1.10;;;24.00;52.30;;;;;;604867;236;26602;-64
2022/06/08 07:26:48;;;;;;;1.30;1.20;;;24.00;52.30;;;;;;603567;235;26578;-63
2022/06/08 07:29:16;;;;;;;1.42;1.30;;;24.10;52.30;;;;;;602999;236;26558;-63
2022/06/08 07:31:44;;;;;;;1.25;1.15;;;24.40;52.20;;;;;;603623;237;26641;-63
2022/06/08 07:34:12;;;;;;;1.20;1.10;;;24.30;51.70;;;;;;601909;236;26864;-63
2022/06/08 07:36:39;;;;;;;2.25;1.37;;;24.10;51.80;;;;;;601668;237;26633;-64
2022/06/08 07:39:07;;;;;;;1.48;1.33;;;24.20;51.80;;;;;;604345;235;26833;-64
2022/06/08 07:41:34;;;;;;;1.62;1.52;;;24.20;51.80;;;;;;606222;234;26575;-64
2022/06/08 07:44:01;;;;;;;1.60;1.50;;;24.30;51.20;;;;;;604817;234;26861;-62
2022/06/08 07:46:29;;;;;;;1.50;1.17;;;24.40;51.70;;;;;;606344;234;26595;-63
2022/06/08 07:51:29;;;;;;;1.25;1.15;;;23.80;52.30;;;;;;605672;235;26638;-64
2022/06/08 07:53:57;;;;;;;1.98;1.40;;;22.90;52.80;;;;;;605069;237;26644;-64
2022/06/08 07:56:24;;;;;;;1.00;1.00;;;22.90;52.80;;;;;;603467;235;26849;-63
2022/06/08 07:58:52;;;;;;;2.03;1.45;;;22.70;53.30;;;;;;603973;236;26649;-64
2022/06/08 08:01:19;;;;;;;1.30;1.20;;;22.70;53.50;;;;;;604383;235;27251;-64
2022/06/08 08:03:46;;;;;;;1.15;1.02;;;23.10;53.30;;;;;;606025;235;26582;-64
2022/06/08 08:06:13;;;;;;;1.10;1.10;;;23.60;53.00;;;;;;605699;234;26838;-64
2022/06/08 08:08:40;;;;;;;1.00;1.00;;;23.90;52.50;;;;;;605216;230;26592;-64
2022/06/08 08:11:08;;;;;;;1.00;1.00;;;24.20;52.30;;;;;;603309;236;26847;-64
2022/06/08 08:13:36;;;;;;;4.72;1.73;;;23.80;52.30;;;;;;605472;235;26593;-64
2022/06/08 08:16:02;;;;;;;1.58;1.48;;;23.70;52.60;;;;;;607074;235;26840;-63
2022/06/08 08:18:31;;;;;;;55.25;11.75;;;23.80;52.40;;;;;;604269;236;26619;-67
2022/06/08 08:20:56;;;;;;;106.60;24.30;;;24.10;52.00;;;;;;604609;233;26797;-67
2022/06/08 08:23:24;;;;;;;154.68;32.63;;;24.20;52.00;;;;;;604207;237;26650;-68
2022/06/08 08:25:52;;;;;;;54.90;14.10;;;24.30;52.00;;;;;;603417;237;26669;-70
2022/06/08 08:28:18;;;;;;;125.38;27.37;;;24.00;52.10;;;;;;602065;236;26611;-68
2022/06/08 08:30:45;;;;;;;107.65;22.80;;;23.60;52.70;;;;;;606290;235;26611;-66
2022/06/08 08:33:12;;;;;;;41.50;10.50;;;23.10;53.30;;;;;;605218;236;26822;-65
2022/06/08 08:35:40;;;;;;;34.53;10.73;;;22.90;53.70;;;;;;603596;236;26662;-66
2022/06/08 08:38:08;;;;;;;61.05;13.98;;;23.00;53.60;;;;;;603720;238;26867;-65
2022/06/08 08:40:49;;;;;;;51.72;13.05;;;23.00;53.60;;;;;;603799;233;26609;-66
2022/06/08 08:43:18;;;;;;;59.25;13.68;;;22.80;54.20;;;;;;601261;239;26620;-66
2022/06/08 08:45:52;;;;;;;44.97;12.05;;;22.80;54.20;;;;;;601409;239;26672;-66
2022/06/08 08:48:27;;;;;;;2.58;1.50;;;23.00;54.50;;;;;;604090;236;26568;-66
2022/06/08 08:50:54;;;;;;;3.55;2.17;;;23.00;54.50;;;;;;607251;236;26801;-66
2022/06/08 08:53:23;;;;;;;1.92;1.70;;;23.20;53.90;;;;;;605225;233;26558;-65
2022/06/08 08:55:58;;;;;;;1.87;1.70;;;23.00;54.10;;;;;;605322;234;26630;-66
2022/06/08 08:58:26;;;;;;;21.08;6.47;;;22.90;54.00;;;;;;602397;235;26846;-66
2022/06/08 09:00:53;;;;;;;17.62;6.22;;;22.70;54.40;;;;;;602102;237;26642;-66
2022/06/08 09:03:28;;;;;;;3.25;2.10;;;23.00;54.50;;;;;;601946;239;26604;-66
2022/06/08 09:05:55;;;;;;;15.70;5.32;;;22.90;54.00;;;;;;602134;237;26620;-66
2022/06/08 09:08:23;;;;;;;2.15;1.95;;;23.20;54.00;;;;;;602067;232;26942;-66
2022/06/08 09:10:51;;;;;;;4.25;2.10;;;23.40;53.70;;;;;;601695;239;26589;-66
2022/06/08 09:13:21;;;;;;;3.87;2.37;;;23.50;53.20;;;;;;601624;237;26817;-66
2022/06/08 09:15:52;;;;;;;6.37;3.08;;;23.80;52.80;;;;;;601630;237;26606;-66
2022/06/08 09:18:20;;;;;;;1.50;1.37;;;24.00;52.30;;;;;;601623;237;26596;-66
2022/06/08 09:20:48;;;;;;;3.28;1.83;;;24.20;52.20;;;;;;601763;237;26600;-66
2022/06/08 09:23:31;;;;;;;7.07;2.62;;;24.30;51.90;;;;;;601691;237;26558;-66
2022/06/08 09:26:00;;;;;;;5.43;2.60;;;24.60;51.50;;;;;;601895;236;26581;-66
2022/06/08 09:28:28;;;;;;;2.72;1.67;;;24.70;51.20;;;;;;601735;237;26823;-66
2022/06/08 09:30:55;;;;;;;3.95;2.37;;;24.50;51.50;;;;;;601552;237;26616;-66
2022/06/08 09:33:25;;;;;;;2.55;1.50;;;24.40;51.60;;;;;;601534;237;26841;-66
2022/06/08 09:35:53;;;;;;;4.53;2.67;;;24.50;51.30;;;;;;601460;239;27342;-66
2022/06/08 09:38:21;;;;;;;5.65;2.87;;;24.60;51.40;;;;;;601451;239;26653;-66
2022/06/08 09:41:13;;;;;;;2.40;1.98;;;24.60;51.40;;;;;;601545;237;26845;-66
2022/06/08 09:43:59;;;;;;;4.90;2.20;;;24.60;51.20;;;;;;601832;236;26654;-66
2022/06/08 09:51:54;;;;;;;1.20;1.20;;;25.20;50.90;;;;;;601515;237;26885;-66
2022/06/08 09:54:24;;;;;;;4.20;2.47;;;25.60;50.60;;;;;;600873;239;26657;-66
2022/06/08 09:57:11;;;;;;;1.83;1.30;;;26.00;50.10;;;;;;601228;239;26611;-65
2022/06/08 10:00:03;;;;;;;3.95;2.30;;;26.00;49.40;;;;;;601970;236;26888;-66
2022/06/08 10:02:44;;;;;;;6.40;2.58;;;25.60;49.40;;;;;;591498;238;26674;-66
2022/06/08 10:05:34;;;;;;;4.12;2.20;;;25.60;49.40;;;;;;604803;235;26681;-66
2022/06/08 10:08:23;;;;;;;3.35;2.20;;;25.30;49.70;;;;;;606619;234;26634;-65
2022/06/08 10:11:34;;;;;;;3.92;2.47;;;25.20;50.20;;;;;;605451;236;26597;-65
2022/06/08 10:13:37;;;;;;;4.70;2.08;;;24.90;50.50;;;;;;602777;237;26643;-66
2022/06/08 10:16:07;;;;;;;2.25;1.60;;;25.10;50.40;;;;;;604934;238;26667;-64
2022/06/08 10:18:35;;;;;;;3.20;2.30;;;25.00;50.60;;;;;;604823;238;26652;-64
2022/06/08 10:21:03;;;;;;;4.07;2.20;;;25.00;50.60;;;;;;604779;238;26652;-64
2022/06/08 10:23:47;;;;;;;4.03;2.17;;;24.80;50.90;;;;;;604108;235;26586;-64
2022/06/08 10:26:16;;;;;;;5.22;2.40;;;24.60;50.90;;;;;;604435;238;26631;-64
2022/06/08 10:28:47;;;;;;;1.80;1.70;;;24.70;51.20;;;;;;604324;237;26594;-64
2022/06/08 10:31:16;;;;;;;2.42;2.10;;;24.60;51.10;;;;;;605085;238;26595;-64
2022/06/08 10:33:55;;;;;;;2.40;1.65;;;24.60;51.00;;;;;;604602;238;26550;-64
2022/06/08 10:36:23;;;;;;;1.02;1.00;;;24.90;50.70;;;;;;605285;237;26582;-63
2022/06/08 10:38:50;;;;;;;1.42;1.33;;;25.40;50.30;;;;;;604837;238;26584;-63
2022/06/08 10:43:51;;;;;;;1.17;1.17;;;25.60;49.40;;;;;;604285;235;26598;-63
2022/06/08 10:46:27;;;;;;;3.08;1.42;;;25.60;49.30;;;;;;606906;235;26666;-64
2022/06/08 10:48:55;;;;;;;2.45;1.77;;;25.40;48.80;;;;;;603934;235;26645;-63
2022/06/08 10:51:23;;;;;;;0.90;0.90;;;25.40;49.00;;;;;;604505;236;26648;-64
2022/06/08 10:56:50;;;;;;;2.40;2.20;;;25.60;49.60;;;;;;609247;235;26637;-64
2022/06/08 10:59:19;;;;;;;1.37;1.27;;;25.70;49.20;;;;;;609537;236;26615;-64
2022/06/08 11:02:00;;;;;;;1.05;1.05;;;26.00;49.00;;;;;;609751;236;26607;-64
2022/06/08 11:04:38;;;;;;;2.90;1.95;;;26.20;49.30;;;;;;609642;236;26917;-63
2022/06/08 11:07:07;;;;;;;3.85;2.10;;;26.50;48.10;;;;;;609770;236;26588;-63
2022/06/08 11:09:51;;;;;;;1.40;1.30;;;26.40;48.40;;;;;;609880;236;26879;-64
2022/06/08 11:12:23;;;;;;;1.35;1.25;;;26.60;48.50;;;;;;608905;236;26814;-64
2022/06/08 11:14:51;;;;;;;0.90;0.90;;;26.60;47.70;;;;;;610385;233;26604;-64
2022/06/08 11:17:21;;;;;;;1.33;1.12;;;26.40;47.80;;;;;;611150;235;26585;-64
2022/06/08 11:19:49;;;;;;;3.12;2.17;;;26.10;47.50;;;;;;610710;235;26630;-64
2022/06/08 11:22:17;;;;;;;1.50;1.40;;;26.10;47.50;;;;;;610627;235;26587;-66
2022/06/08 11:24:45;;;;;;;2.78;1.75;;;25.70;48.20;;;;;;605968;235;26866;-66
2022/06/08 11:27:19;;;;;;;2.92;2.00;;;26.00;48.00;;;;;;603184;236;26978;-66
2022/06/08 11:29:46;;;;;;;4.72;2.12;;;26.00;48.00;;;;;;605399;235;26643;-66
2022/06/08 11:32:41;;;;;;;5.53;2.45;;;26.20;47.70;;;;;;607761;236;26586;-65
2022/06/08 11:35:14;;;;;;;5.20;2.40;;;26.60;47.60;;;;;;603932;238;26614;-65
2022/06/08 11:37:43;;;;;;;4.03;2.65;;;26.50;47.50;;;;;;601537;236;26571;-66
2022/06/08 11:40:30;;;;;;;7.62;2.83;;;26.40;48.30;;;;;;601483;235;26614;-65
2022/06/08 11:42:59;;;;;;;3.62;2.53;;;26.20;47.80;;;;;;601918;237;26613;-65
2022/06/08 11:45:42;;;;;;;11.25;4.72;;;26.10;48.00;;;;;;604229;238;26862;-65
2022/06/08 11:48:13;;;;;;;4.03;2.35;;;25.80;48.10;;;;;;607716;236;27291;-65
2022/06/08 11:50:42;;;;;;;79.72;39.20;;;25.60;48.50;;;;;;603004;238;26905;-65
2022/06/08 11:53:25;;;;;;;53.92;25.65;;;25.80;48.20;;;;;;604697;236;26934;-65
2022/06/08 11:55:52;;;;;;;3.65;2.30;;;25.70;48.20;;;;;;603714;235;26646;-65
2022/06/08 11:58:23;;;;;;;46.15;23.52;;;25.80;48.50;;;;;;602700;233;26871;-65
2022/06/08 12:00:53;;;;;;;3.08;2.40;;;26.00;48.20;;;;;;606762;235;26617;-65
2022/06/08 12:03:28;;;;;;;191.23;89.70;;;26.20;48.60;;;;;;605382;236;26857;-65
2022/06/08 12:06:03;;;;;;;12.00;6.43;;;26.50;47.90;;;;;;609734;236;26904;-65
2022/06/08 12:08:33;;;;;;;4.07;2.33;;;26.80;48.10;;;;;;605575;235;26616;-65
2022/06/08 12:10:59;;;;;;;10.00;6.00;;;26.80;47.20;;;;;;604355;235;26612;-65
2022/06/08 12:13:27;;;;;;;1.90;1.80;;;26.80;47.00;;;;;;603400;235;26629;-65
2022/06/08 12:15:55;;;;;;;2.58;1.60;;;26.70;47.10;;;;;;604280;234;26619;-65
2022/06/08 12:18:22;;;;;;;3.08;2.78;;;26.70;47.00;;;;;;604080;235;26812;-65
2022/06/08 12:20:49;;;;;;;10.07;4.55;;;26.90;47.20;;;;;;606179;235;26615;-65
2022/06/08 12:23:16;;;;;;;1.37;1.27;;;27.50;47.40;;;;;;604674;235;26841;-65
2022/06/08 12:25:44;;;;;;;1.23;1.23;;;28.10;46.40;;;;;;600551;234;26885;-65
2022/06/08 12:28:20;;;;;;;25.42;14.02;;;28.40;45.80;;;;;;604862;233;26650;-64
2022/06/08 12:30:56;;;;;;;1.98;1.87;;;28.50;45.10;;;;;;605810;234;26886;-64
2022/06/08 12:33:24;;;;;;;1.20;1.10;;;28.50;45.30;;;;;;608598;234;26829;-65
2022/06/08 12:35:58;;;;;;;1.33;1.23;;;28.50;45.50;;;;;;608445;234;26592;-66
2022/06/08 12:38:26;;;;;;;272.98;129.10;;;28.90;44.80;;;;;;604317;235;26601;-65
2022/06/08 12:41:08;;;;;;;1.77;1.67;;;29.20;44.20;;;;;;605821;231;26620;-65
2022/06/08 12:43:40;;;;;;;305.25;134.00;;;29.20;44.20;;;;;;603313;236;26871;-64
2022/06/08 12:46:28;;;;;;;5.82;4.03;;;29.70;43.00;;;;;;604901;235;26604;-65
2022/06/08 12:48:58;;;;;;;179.75;79.25;;;30.60;42.10;;;;;;604117;235;26586;-64
2022/06/08 12:51:33;;;;;;;43.85;23.10;;;30.50;42.00;;;;;;605633;235;26802;-64
2022/06/08 12:54:01;;;;;;;2.62;2.42;;;30.60;42.60;;;;;;602993;234;26573;-66
2022/06/08 12:56:29;;;;;;;3.58;2.33;;;30.40;41.60;;;;;;602710;236;26602;-67
2022/06/08 12:58:57;;;;;;;149.32;65.95;;;29.60;42.10;;;;;;604908;235;26605;-66
2022/06/08 13:01:28;;;;;;;32.35;19.08;;;29.20;43.10;;;;;;607271;235;26681;-66
2022/06/08 13:03:53;;;;;;;4.37;2.87;;;29.20;43.20;;;;;;604345;235;27217;-63
2022/06/08 13:06:21;;;;;;;1.87;1.25;;;28.80;43.90;;;;;;604451;235;26653;-63
2022/06/08 13:08:49;;;;;;;1.10;1.10;;;28.80;43.80;;;;;;606541;235;26583;-63
2022/06/08 13:11:16;;;;;;;1.45;1.35;;;28.10;43.70;;;;;;607510;235;26653;-63
2022/06/08 13:13:43;;;;;;;28.85;15.63;;;26.80;44.80;;;;;;602221;235;26630;-63